sensor_id;sensor_type;location;lat;lon;timestamp;temperature;humidity
5647;DHT22;2845;48.626;9.362;2023-11-19T00:01:09;8.10;99.90
5647;DHT22;2845;48.626;9.362;2023-11-19T00:03:43;8.20;99.90
5647;DHT22;2845;48.626;9.362;2023-11-19T00:06:21;10.20;99.90
5647;DHT22;2845;48.626;9.362;2023-11-19T00:08:55;8.30;99.90
5647;DHT22;2845;48.626;9.362;2023-11-19T00:11:29;8.30;99.90
5647;DHT22;2845;48.626;9.362;2023-11-19T00:14:04;8.40;99.90
5647;DHT22;2845;48.626;9.362;2023-11-19T00:16:41;8.50;99.90
5647;DHT22;2845;48.626;9.362;2023-11-19T00:19:15;8.50;99.90
5647;DHT22;2845;48.626;9.362;2023-11-19T00:21:52;8.50;99.90
5647;DHT22;2845;48.626;9.362;2023-11-19T00:24:27;9.30;99.90
5647;DHT22;2845;48.626;9.362;2023-11-19T00:27:01;8.50;99.90
5647;DHT22;2845;48.626;9.362;2023-11-19T00:29:35;8.60;99.90
5647;DHT22;2845;48.626;9.362;2023-11-19T00:32:10;8.60;99.90
5647;DHT22;2845;48.626;9.362;2023-11-19T00:34:44;10.50;99.90
5647;DHT22;2845;48.626;9.362;2023-11-19T00:37:21;8.50;99.90
5647;DHT22;2845;48.626;9.362;2023-11-19T00:42:31;8.60;99.90
5647;DHT22;2845;48.626;9.362;2023-11-19T00:45:05;8.60;99.90
5647;DHT22;2845;48.626;9.362;2023-11-19T00:47:42;8.60;99.90
5647;DHT22;2845;48.626;9.362;2023-11-19T00:50:17;8.60;99.90
5647;DHT22;2845;48.626;9.362;2023-11-19T00:52:53;8.70;99.90
5647;DHT22;2845;48.626;9.362;2023-11-19T00:55:27;8.60;99.90
5647;DHT22;2845;48.626;9.362;2023-11-19T00:58:01;8.70;99.90
5647;DHT22;2845;48.626;9.362;2023-11-19T01:00:37;10.80;99.90
5647;DHT22;2845;48.626;9.362;2023-11-19T01:03:11;8.70;99.90
5647;DHT22;2845;48.626;9.362;2023-11-19T01:05:46;8.80;99.90
5647;DHT22;2845;48.626;9.362;2023-11-19T01:08:22;8.80;99.90
5647;DHT22;2845;48.626;9.362;2023-11-19T01:10:57;8.80;99.90
5647;DHT22;2845;48.626;9.362;2023-11-19T01:13:32;8.80;99.90
5647;DHT22;2845;48.626;9.362;2023-11-19T01:16:10;10.10;99.90
5647;DHT22;2845;48.626;9.362;2023-11-19T01:18:47;8.90;99.90
5647;DHT22;2845;48.626;9.362;2023-11-19T01:21:21;8.90;99.90
5647;DHT22;2845;48.626;9.362;2023-11-19T01:23:57;9.00;99.90
5647;DHT22;2845;48.626;9.362;2023-11-19T01:26:31;9.00;99.90
5647;DHT22;2845;48.626;9.362;2023-11-19T01:29:06;9.00;99.90
5647;DHT22;2845;48.626;9.362;2023-11-19T01:31:40;9.00;99.90
5647;DHT22;2845;48.626;9.362;2023-11-19T01:34:14;9.10;99.90
5647;DHT22;2845;48.626;9.362;2023-11-19T01:36:49;9.10;99.90
5647;DHT22;2845;48.626;9.362;2023-11-19T01:39:26;9.40;99.90
5647;DHT22;2845;48.626;9.362;2023-11-19T01:42:00;9.10;99.90
5647;DHT22;2845;48.626;9.362;2023-11-19T01:44:34;9.10;99.90
5647;DHT22;2845;48.626;9.362;2023-11-19T01:47:09;9.10;99.90
5647;DHT22;2845;48.626;9.362;2023-11-19T01:49:44;11.30;99.90
5647;DHT22;2845;48.626;9.362;2023-11-19T01:52:18;9.20;99.90
5647;DHT22;2845;48.626;9.362;2023-11-19T01:54:56;9.20;99.90
5647;DHT22;2845;48.626;9.362;2023-11-19T01:57:30;10.00;99.90
5647;DHT22;2845;48.626;9.362;2023-11-19T02:00:06;10.40;99.90
5647;DHT22;2845;48.626;9.362;2023-11-19T02:02:44;9.20;99.90
5647;DHT22;2845;48.626;9.362;2023-11-19T02:05:20;10.90;99.90
5647;DHT22;2845;48.626;9.362;2023-11-19T02:07:56;9.30;99.90
5647;DHT22;2845;48.626;9.362;2023-11-19T02:10:32;10.40;99.90
5647;DHT22;2845;48.626;9.362;2023-11-19T02:13:06;9.40;99.90
5647;DHT22;2845;48.626;9.362;2023-11-19T02:15:40;9.30;99.90
5647;DHT22;2845;48.626;9.362;2023-11-19T02:18:19;12.00;99.90
5647;DHT22;2845;48.626;9.362;2023-11-19T02:20:56;9.40;99.90
5647;DHT22;2845;48.626;9.362;2023-11-19T02:23:32;11.50;99.90
5647;DHT22;2845;48.626;9.362;2023-11-19T02:26:14;9.30;99.90
5647;DHT22;2845;48.626;9.362;2023-11-19T02:28:54;9.40;99.90
5647;DHT22;2845;48.626;9.362;2023-11-19T02:31:30;9.40;99.90
5647;DHT22;2845;48.626;9.362;2023-11-19T02:34:05;9.40;99.90
5647;DHT22;2845;48.626;9.362;2023-11-19T02:36:39;9.40;99.90
5647;DHT22;2845;48.626;9.362;2023-11-19T02:39:14;9.40;99.90
5647;DHT22;2845;48.626;9.362;2023-11-19T02:41:54;9.40;99.90
5647;DHT22;2845;48.626;9.362;2023-11-19T02:44:31;9.40;99.90
5647;DHT22;2845;48.626;9.362;2023-11-19T02:47:05;11.40;99.90
5647;DHT22;2845;48.626;9.362;2023-11-19T02:49:41;9.50;99.90
5647;DHT22;2845;48.626;9.362;2023-11-19T02:52:16;9.50;99.90
5647;DHT22;2845;48.626;9.362;2023-11-19T02:54:50;9.50;99.90
5647;DHT22;2845;48.626;9.362;2023-11-19T02:57:24;9.50;99.90
5647;DHT22;2845;48.626;9.362;2023-11-19T03:00:00;9.50;99.90
5647;DHT22;2845;48.626;9.362;2023-11-19T03:02:38;13.70;99.90
5647;DHT22;2845;48.626;9.362;2023-11-19T03:05:17;9.40;99.90
5647;DHT22;2845;48.626;9.362;2023-11-19T03:07:52;9.60;99.90
5647;DHT22;2845;48.626;9.362;2023-11-19T03:10:28;9.60;99.90
5647;DHT22;2845;48.626;9.362;2023-11-19T03:13:02;9.50;99.90
5647;DHT22;2845;48.626;9.362;2023-11-19T03:15:38;9.50;99.90
5647;DHT22;2845;48.626;9.362;2023-11-19T03:18:12;9.50;99.90
5647;DHT22;2845;48.626;9.362;2023-11-19T03:20:47;9.50;99.90
5647;DHT22;2845;48.626;9.362;2023-11-19T03:23:22;9.50;99.90
5647;DHT22;2845;48.626;9.362;2023-11-19T03:25:56;9.50;99.90
5647;DHT22;2845;48.626;9.362;2023-11-19T03:28:31;9.50;99.90
5647;DHT22;2845;48.626;9.362;2023-11-19T03:31:07;9.50;99.90
5647;DHT22;2845;48.626;9.362;2023-11-19T03:33:42;9.60;99.90
5647;DHT22;2845;48.626;9.362;2023-11-19T03:36:16;9.60;99.90
5647;DHT22;2845;48.626;9.362;2023-11-19T03:41:25;9.60;99.90
5647;DHT22;2845;48.626;9.362;2023-11-19T03:43:59;10.80;99.90
5647;DHT22;2845;48.626;9.362;2023-11-19T03:49:09;9.60;99.90
5647;DHT22;2845;48.626;9.362;2023-11-19T03:51:45;9.60;99.90
5647;DHT22;2845;48.626;9.362;2023-11-19T03:54:19;9.60;99.90
5647;DHT22;2845;48.626;9.362;2023-11-19T03:56:56;10.80;99.90
5647;DHT22;2845;48.626;9.362;2023-11-19T03:59:32;9.70;99.90
5647;DHT22;2845;48.626;9.362;2023-11-19T04:02:08;11.60;99.90
5647;DHT22;2845;48.626;9.362;2023-11-19T04:04:43;9.70;99.90
5647;DHT22;2845;48.626;9.362;2023-11-19T04:07:18;9.70;99.90
5647;DHT22;2845;48.626;9.362;2023-11-19T04:09:52;9.70;99.90
5647;DHT22;2845;48.626;9.362;2023-11-19T04:12:26;9.80;99.90
5647;DHT22;2845;48.626;9.362;2023-11-19T04:15:00;9.80;99.90
5647;DHT22;2845;48.626;9.362;2023-11-19T04:20:11;9.80;99.90
5647;DHT22;2845;48.626;9.362;2023-11-19T04:22:47;9.80;99.90
5647;DHT22;2845;48.626;9.362;2023-11-19T04:25:21;10.90;99.90
5647;DHT22;2845;48.626;9.362;2023-11-19T04:27:56;10.60;99.90
5647;DHT22;2845;48.626;9.362;2023-11-19T04:30:30;9.80;99.90
5647;DHT22;2845;48.626;9.362;2023-11-19T04:33:06;9.90;99.90
5647;DHT22;2845;48.626;9.362;2023-11-19T04:35:41;9.90;99.90
5647;DHT22;2845;48.626;9.362;2023-11-19T04:38:15;11.90;99.90
5647;DHT22;2845;48.626;9.362;2023-11-19T04:40:49;11.30;99.90
5647;DHT22;2845;48.626;9.362;2023-11-19T04:43:24;9.90;99.90
5647;DHT22;2845;48.626;9.362;2023-11-19T04:45:58;9.90;99.90
5647;DHT22;2845;48.626;9.362;2023-11-19T04:48:34;10.00;99.90
5647;DHT22;2845;48.626;9.362;2023-11-19T04:51:11;10.00;99.90
5647;DHT22;2845;48.626;9.362;2023-11-19T04:53:46;10.50;99.90
5647;DHT22;2845;48.626;9.362;2023-11-19T04:56:20;10.00;99.90
5647;DHT22;2845;48.626;9.362;2023-11-19T04:58:57;11.10;99.90
5647;DHT22;2845;48.626;9.362;2023-11-19T05:01:32;10.10;99.90
5647;DHT22;2845;48.626;9.362;2023-11-19T05:04:08;10.20;99.90
5647;DHT22;2845;48.626;9.362;2023-11-19T05:06:43;10.20;99.90
5647;DHT22;2845;48.626;9.362;2023-11-19T05:09:18;10.20;99.90
5647;DHT22;2845;48.626;9.362;2023-11-19T05:11:52;10.20;99.90
5647;DHT22;2845;48.626;9.362;2023-11-19T05:14:26;10.20;99.90
5647;DHT22;2845;48.626;9.362;2023-11-19T05:17:01;10.30;99.90
5647;DHT22;2845;48.626;9.362;2023-11-19T05:19:36;11.40;99.90
5647;DHT22;2845;48.626;9.362;2023-11-19T05:22:12;10.30;99.90
5647;DHT22;2845;48.626;9.362;2023-11-19T05:24:46;10.30;99.90
5647;DHT22;2845;48.626;9.362;2023-11-19T05:27:21;10.30;99.90
5647;DHT22;2845;48.626;9.362;2023-11-19T05:29:57;10.40;99.90
5647;DHT22;2845;48.626;9.362;2023-11-19T05:32:31;10.40;99.90
5647;DHT22;2845;48.626;9.362;2023-11-19T05:35:08;12.30;99.90
5647;DHT22;2845;48.626;9.362;2023-11-19T05:37:43;7.20;99.90
5647;DHT22;2845;48.626;9.362;2023-11-19T05:40:17;10.50;99.90
5647;DHT22;2845;48.626;9.362;2023-11-19T05:42:53;10.50;99.90
5647;DHT22;2845;48.626;9.362;2023-11-19T05:45:27;10.60;99.90
5647;DHT22;2845;48.626;9.362;2023-11-19T05:48:02;10.60;99.90
5647;DHT22;2845;48.626;9.362;2023-11-19T05:50:38;10.70;99.90
5647;DHT22;2845;48.626;9.362;2023-11-19T05:53:13;10.70;99.90
5647;DHT22;2845;48.626;9.362;2023-11-19T05:55:48;10.70;99.90
5647;DHT22;2845;48.626;9.362;2023-11-19T06:01:03;10.70;99.90
5647;DHT22;2845;48.626;9.362;2023-11-19T06:03:41;10.80;99.90
5647;DHT22;2845;48.626;9.362;2023-11-19T06:08:52;10.80;99.90
5647;DHT22;2845;48.626;9.362;2023-11-19T06:11:27;11.90;99.90
5647;DHT22;2845;48.626;9.362;2023-11-19T06:14:02;12.20;99.90
5647;DHT22;2845;48.626;9.362;2023-11-19T06:16:38;9.30;99.90
5647;DHT22;2845;48.626;9.362;2023-11-19T06:19:13;8.20;99.90
5647;DHT22;2845;48.626;9.362;2023-11-19T06:21:49;10.80;99.90
5647;DHT22;2845;48.626;9.362;2023-11-19T06:24:23;10.80;99.90
5647;DHT22;2845;48.626;9.362;2023-11-19T06:27:01;10.90;99.90
5647;DHT22;2845;48.626;9.362;2023-11-19T06:29:35;10.90;99.90
5647;DHT22;2845;48.626;9.362;2023-11-19T06:32:09;10.90;99.90
5647;DHT22;2845;48.626;9.362;2023-11-19T06:34:47;10.90;99.90
5647;DHT22;2845;48.626;9.362;2023-11-19T06:42:35;10.90;99.90
5647;DHT22;2845;48.626;9.362;2023-11-19T06:45:09;14.70;99.90
5647;DHT22;2845;48.626;9.362;2023-11-19T06:47:44;10.90;99.90
5647;DHT22;2845;48.626;9.362;2023-11-19T06:50:18;10.90;99.90
5647;DHT22;2845;48.626;9.362;2023-11-19T06:55:28;10.90;99.90
5647;DHT22;2845;48.626;9.362;2023-11-19T06:58:03;11.00;99.90
5647;DHT22;2845;48.626;9.362;2023-11-19T07:00:37;11.00;99.90
5647;DHT22;2845;48.626;9.362;2023-11-19T07:03:12;11.00;99.90
5647;DHT22;2845;48.626;9.362;2023-11-19T07:05:47;11.00;99.90
5647;DHT22;2845;48.626;9.362;2023-11-19T07:08:23;11.00;99.90
5647;DHT22;2845;48.626;9.362;2023-11-19T07:10:57;11.00;99.90
5647;DHT22;2845;48.626;9.362;2023-11-19T07:13:32;10.90;99.90
5647;DHT22;2845;48.626;9.362;2023-11-19T07:16:07;11.00;99.90
5647;DHT22;2845;48.626;9.362;2023-11-19T07:18:43;13.50;99.90
5647;DHT22;2845;48.626;9.362;2023-11-19T07:21:17;11.10;99.90
5647;DHT22;2845;48.626;9.362;2023-11-19T07:23:53;11.10;99.90
5647;DHT22;2845;48.626;9.362;2023-11-19T07:26:28;11.20;99.90
5647;DHT22;2845;48.626;9.362;2023-11-19T07:29:04;11.10;99.90
5647;DHT22;2845;48.626;9.362;2023-11-19T07:31:40;11.20;99.90
5647;DHT22;2845;48.626;9.362;2023-11-19T07:34:14;12.50;99.90
5647;DHT22;2845;48.626;9.362;2023-11-19T07:36:49;11.30;99.90
5647;DHT22;2845;48.626;9.362;2023-11-19T07:39:25;10.10;99.90
5647;DHT22;2845;48.626;9.362;2023-11-19T07:42:00;11.40;99.90
5647;DHT22;2845;48.626;9.362;2023-11-19T07:44:34;12.90;99.90
5647;DHT22;2845;48.626;9.362;2023-11-19T07:47:12;11.40;99.90
5647;DHT22;2845;48.626;9.362;2023-11-19T07:49:47;11.40;99.90
5647;DHT22;2845;48.626;9.362;2023-11-19T07:52:24;11.40;99.90
5647;DHT22;2845;48.626;9.362;2023-11-19T07:57:38;14.90;99.90
5647;DHT22;2845;48.626;9.362;2023-11-19T08:00:13;11.40;99.90
5647;DHT22;2845;48.626;9.362;2023-11-19T08:02:48;11.40;99.90
5647;DHT22;2845;48.626;9.362;2023-11-19T08:05:22;11.50;99.90
5647;DHT22;2845;48.626;9.362;2023-11-19T08:07:57;11.40;99.90
5647;DHT22;2845;48.626;9.362;2023-11-19T08:10:33;11.40;99.90
5647;DHT22;2845;48.626;9.362;2023-11-19T08:13:11;11.40;99.90
5647;DHT22;2845;48.626;9.362;2023-11-19T08:15:45;11.50;99.90
5647;DHT22;2845;48.626;9.362;2023-11-19T08:18:20;11.50;99.90
5647;DHT22;2845;48.626;9.362;2023-11-19T08:20:54;11.50;99.90
5647;DHT22;2845;48.626;9.362;2023-11-19T08:23:31;11.50;99.90
5647;DHT22;2845;48.626;9.362;2023-11-19T08:28:43;11.60;99.90
5647;DHT22;2845;48.626;9.362;2023-11-19T08:31:17;11.70;99.90
5647;DHT22;2845;48.626;9.362;2023-11-19T08:33:51;11.20;99.90
5647;DHT22;2845;48.626;9.362;2023-11-19T08:36:26;11.80;99.90
5647;DHT22;2845;48.626;9.362;2023-11-19T08:39:01;11.90;99.90
5647;DHT22;2845;48.626;9.362;2023-11-19T08:41:38;12.00;99.90
5647;DHT22;2845;48.626;9.362;2023-11-19T08:44:14;12.10;99.90
5647;DHT22;2845;48.626;9.362;2023-11-19T08:46:49;9.00;99.90
5647;DHT22;2845;48.626;9.362;2023-11-19T08:49:29;12.00;99.90
5647;DHT22;2845;48.626;9.362;2023-11-19T08:52:49;11.40;99.90
5647;DHT22;2845;48.626;9.362;2023-11-19T08:56:19;12.20;99.90
5647;DHT22;2845;48.626;9.362;2023-11-19T08:58:54;12.30;99.90
5647;DHT22;2845;48.626;9.362;2023-11-19T09:01:29;12.50;99.90
5647;DHT22;2845;48.626;9.362;2023-11-19T09:04:04;12.60;99.90
5647;DHT22;2845;48.626;9.362;2023-11-19T09:06:39;12.80;99.90
5647;DHT22;2845;48.626;9.362;2023-11-19T09:09:15;12.90;99.90
5647;DHT22;2845;48.626;9.362;2023-11-19T09:11:49;13.80;99.90
5647;DHT22;2845;48.626;9.362;2023-11-19T09:17:00;13.00;99.90
5647;DHT22;2845;48.626;9.362;2023-11-19T09:19:37;13.10;99.90
5647;DHT22;2845;48.626;9.362;2023-11-19T09:22:11;13.30;99.90
5647;DHT22;2845;48.626;9.362;2023-11-19T09:24:45;13.50;99.70
5647;DHT22;2845;48.626;9.362;2023-11-19T09:27:20;13.50;99.60
5647;DHT22;2845;48.626;9.362;2023-11-19T09:29:56;13.50;99.50
5647;DHT22;2845;48.626;9.362;2023-11-19T09:32:31;13.00;99.40
5647;DHT22;2845;48.626;9.362;2023-11-19T09:35:06;13.70;99.30
5647;DHT22;2845;48.626;9.362;2023-11-19T09:37:43;13.70;99.30
5647;DHT22;2845;48.626;9.362;2023-11-19T09:40:18;13.70;99.20
5647;DHT22;2845;48.626;9.362;2023-11-19T09:42:53;14.70;99.70
5647;DHT22;2845;48.626;9.362;2023-11-19T09:45:35;13.60;99.40
5647;DHT22;2845;48.626;9.362;2023-11-19T09:48:18;13.60;99.40
5647;DHT22;2845;48.626;9.362;2023-11-19T09:50:53;13.70;99.30
5647;DHT22;2845;48.626;9.362;2023-11-19T09:53:27;13.70;99.30
5647;DHT22;2845;48.626;9.362;2023-11-19T09:56:04;13.70;99.20
5647;DHT22;2845;48.626;9.362;2023-11-19T09:58:40;13.70;98.90
5647;DHT22;2845;48.626;9.362;2023-11-19T10:04:04;13.80;99.30
5647;DHT22;2845;48.626;9.362;2023-11-19T10:06:39;13.70;99.40
5647;DHT22;2845;48.626;9.362;2023-11-19T10:09:13;13.60;99.40
5647;DHT22;2845;48.626;9.362;2023-11-19T10:11:58;13.50;99.30
5647;DHT22;2845;48.626;9.362;2023-11-19T10:14:38;13.40;99.50
5647;DHT22;2845;48.626;9.362;2023-11-19T10:17:14;13.40;99.90
5647;DHT22;2845;48.626;9.362;2023-11-19T10:19:49;13.50;99.80
5647;DHT22;2845;48.626;9.362;2023-11-19T10:22:24;13.60;99.90
5647;DHT22;2845;48.626;9.362;2023-11-19T10:25:00;13.70;99.60
5647;DHT22;2845;48.626;9.362;2023-11-19T10:27:38;18.50;99.90
5647;DHT22;2845;48.626;9.362;2023-11-19T10:30:13;17.70;99.90
5647;DHT22;2845;48.626;9.362;2023-11-19T10:33:07;13.80;99.60
5647;DHT22;2845;48.626;9.362;2023-11-19T10:35:53;13.80;99.30
5647;DHT22;2845;48.626;9.362;2023-11-19T10:38:33;13.70;99.30
5647;DHT22;2845;48.626;9.362;2023-11-19T10:41:08;15.70;99.90
5647;DHT22;2845;48.626;9.362;2023-11-19T10:43:43;14.20;99.80
5647;DHT22;2845;48.626;9.362;2023-11-19T10:46:18;16.10;99.90
5647;DHT22;2845;48.626;9.362;2023-11-19T10:48:57;14.20;99.30
5647;DHT22;2845;48.626;9.362;2023-11-19T10:51:42;15.60;99.90
5647;DHT22;2845;48.626;9.362;2023-11-19T10:54:19;19.30;99.90
5647;DHT22;2845;48.626;9.362;2023-11-19T10:56:57;17.80;99.50
5647;DHT22;2845;48.626;9.362;2023-11-19T10:59:37;14.80;98.30
5647;DHT22;2845;48.626;9.362;2023-11-19T11:02:14;18.80;99.10
5647;DHT22;2845;48.626;9.362;2023-11-19T11:04:55;16.30;98.60
5647;DHT22;2845;48.626;9.362;2023-11-19T11:07:31;15.10;98.10
5647;DHT22;2845;48.626;9.362;2023-11-19T11:10:42;17.20;98.70
5647;DHT22;2845;48.626;9.362;2023-11-19T11:14:56;12.40;97.50
5647;DHT22;2845;48.626;9.362;2023-11-19T11:19:00;16.30;98.50
5647;DHT22;2845;48.626;9.362;2023-11-19T11:22:19;15.10;97.70
5647;DHT22;2845;48.626;9.362;2023-11-19T11:35:03;14.90;97.70
5647;DHT22;2845;48.626;9.362;2023-11-19T11:39:25;12.10;97.60
5647;DHT22;2845;48.626;9.362;2023-11-19T11:42:59;17.50;98.80
5647;DHT22;2845;48.626;9.362;2023-11-19T11:47:39;14.70;98.50
5647;DHT22;2845;48.626;9.362;2023-11-19T11:50:58;14.90;98.30
5647;DHT22;2845;48.626;9.362;2023-11-19T11:54:45;15.20;98.70
5647;DHT22;2845;48.626;9.362;2023-11-19T11:57:54;15.00;98.30
5647;DHT22;2845;48.626;9.362;2023-11-19T12:01:01;11.80;97.70
5647;DHT22;2845;48.626;9.362;2023-11-19T12:04:46;17.10;98.70
5647;DHT22;2845;48.626;9.362;2023-11-19T12:07:55;16.80;98.40
5647;DHT22;2845;48.626;9.362;2023-11-19T12:10:47;18.30;99.00
5647;DHT22;2845;48.626;9.362;2023-11-19T12:13:24;15.10;97.90
5647;DHT22;2845;48.626;9.362;2023-11-19T12:16:11;12.90;97.90
5647;DHT22;2845;48.626;9.362;2023-11-19T12:18:45;15.00;97.70
5647;DHT22;2845;48.626;9.362;2023-11-19T12:21:30;15.00;97.50
5647;DHT22;2845;48.626;9.362;2023-11-19T12:24:07;15.00;97.60
5647;DHT22;2845;48.626;9.362;2023-11-19T12:29:20;14.70;97.60
5647;DHT22;2845;48.626;9.362;2023-11-19T12:31:55;15.90;98.70
5647;DHT22;2845;48.626;9.362;2023-11-19T12:34:36;17.30;98.90
5647;DHT22;2845;48.626;9.362;2023-11-19T12:37:10;17.80;99.40
5647;DHT22;2845;48.626;9.362;2023-11-19T12:39:46;18.80;99.30
5647;DHT22;2845;48.626;9.362;2023-11-19T12:42:40;15.70;98.40
5647;DHT22;2845;48.626;9.362;2023-11-19T12:45:19;14.70;98.10
5647;DHT22;2845;48.626;9.362;2023-11-19T12:48:08;12.60;97.90
5647;DHT22;2845;48.626;9.362;2023-11-19T12:50:53;15.70;97.80
5647;DHT22;2845;48.626;9.362;2023-11-19T12:53:47;15.40;98.20
5647;DHT22;2845;48.626;9.362;2023-11-19T12:56:28;14.60;97.80
5647;DHT22;2845;48.626;9.362;2023-11-19T12:59:13;17.80;98.60
5647;DHT22;2845;48.626;9.362;2023-11-19T13:01:56;16.20;98.30
5647;DHT22;2845;48.626;9.362;2023-11-19T13:04:32;16.50;98.00
5647;DHT22;2845;48.626;9.362;2023-11-19T13:07:09;15.40;98.30
5647;DHT22;2845;48.626;9.362;2023-11-19T13:09:43;18.10;99.00
5647;DHT22;2845;48.626;9.362;2023-11-19T13:12:19;15.30;98.20
5647;DHT22;2845;48.626;9.362;2023-11-19T13:14:55;14.00;97.50
5647;DHT22;2845;48.626;9.362;2023-11-19T13:17:29;14.60;97.70
5647;DHT22;2845;48.626;9.362;2023-11-19T13:20:05;14.60;97.40
5647;DHT22;2845;48.626;9.362;2023-11-19T13:22:54;14.60;97.40
5647;DHT22;2845;48.626;9.362;2023-11-19T13:25:30;14.80;97.60
5647;DHT22;2845;48.626;9.362;2023-11-19T13:28:08;14.90;97.40
5647;DHT22;2845;48.626;9.362;2023-11-19T13:30:44;15.00;97.30
5647;DHT22;2845;48.626;9.362;2023-11-19T13:33:18;15.00;97.30
5647;DHT22;2845;48.626;9.362;2023-11-19T13:35:53;15.20;97.10
5647;DHT22;2845;48.626;9.362;2023-11-19T13:38:28;15.30;97.00
5647;DHT22;2845;48.626;9.362;2023-11-19T13:41:04;15.30;97.00
5647;DHT22;2845;48.626;9.362;2023-11-19T13:43:40;15.30;96.80
5647;DHT22;2845;48.626;9.362;2023-11-19T13:46:16;15.30;96.80
5647;DHT22;2845;48.626;9.362;2023-11-19T13:48:51;15.70;97.00
5647;DHT22;2845;48.626;9.362;2023-11-19T13:51:26;15.00;96.80
5647;DHT22;2845;48.626;9.362;2023-11-19T13:54:02;19.30;98.20
5647;DHT22;2845;48.626;9.362;2023-11-19T13:56:37;14.70;97.10
5647;DHT22;2845;48.626;9.362;2023-11-19T13:59:12;14.60;97.30
5647;DHT22;2845;48.626;9.362;2023-11-19T14:01:47;14.50;97.40
5647;DHT22;2845;48.626;9.362;2023-11-19T14:04:22;15.00;97.60
5647;DHT22;2845;48.626;9.362;2023-11-19T14:06:57;12.50;96.90
5647;DHT22;2845;48.626;9.362;2023-11-19T14:09:31;14.40;97.30
5647;DHT22;2845;48.626;9.362;2023-11-19T14:12:06;15.90;97.60
5647;DHT22;2845;48.626;9.362;2023-11-19T14:14:45;14.40;97.00
5647;DHT22;2845;48.626;9.362;2023-11-19T14:17:23;14.30;97.00
5647;DHT22;2845;48.626;9.362;2023-11-19T14:19:58;14.60;97.10
5647;DHT22;2845;48.626;9.362;2023-11-19T14:22:32;14.50;97.10
5647;DHT22;2845;48.626;9.362;2023-11-19T14:25:11;14.30;96.60
5647;DHT22;2845;48.626;9.362;2023-11-19T14:27:45;14.90;96.40
5647;DHT22;2845;48.626;9.362;2023-11-19T14:30:23;19.00;96.90
5647;DHT22;2845;48.626;9.362;2023-11-19T14:32:58;15.20;96.00
5647;DHT22;2845;48.626;9.362;2023-11-19T14:35:32;15.30;96.00
5647;DHT22;2845;48.626;9.362;2023-11-19T14:38:07;18.30;96.70
5647;DHT22;2845;48.626;9.362;2023-11-19T14:40:42;15.30;95.50
5647;DHT22;2845;48.626;9.362;2023-11-19T14:43:17;15.20;95.60
5647;DHT22;2845;48.626;9.362;2023-11-19T14:45:52;15.10;95.90
5647;DHT22;2845;48.626;9.362;2023-11-19T14:48:30;14.90;95.90
5647;DHT22;2845;48.626;9.362;2023-11-19T14:51:05;14.80;96.30
5647;DHT22;2845;48.626;9.362;2023-11-19T14:53:43;14.50;96.40
5647;DHT22;2845;48.626;9.362;2023-11-19T14:56:18;14.30;96.70
5647;DHT22;2845;48.626;9.362;2023-11-19T14:58:52;14.50;97.00
5647;DHT22;2845;48.626;9.362;2023-11-19T15:01:27;13.90;97.10
5647;DHT22;2845;48.626;9.362;2023-11-19T15:04:05;13.80;97.40
5647;DHT22;2845;48.626;9.362;2023-11-19T15:06:41;13.70;97.60
5647;DHT22;2845;48.626;9.362;2023-11-19T15:09:15;13.60;97.70
5647;DHT22;2845;48.626;9.362;2023-11-19T15:11:50;13.50;97.80
5647;DHT22;2845;48.626;9.362;2023-11-19T15:14:24;13.50;98.00
5647;DHT22;2845;48.626;9.362;2023-11-19T15:16:59;13.40;98.10
5647;DHT22;2845;48.626;9.362;2023-11-19T15:19:35;13.30;98.20
5647;DHT22;2845;48.626;9.362;2023-11-19T15:22:11;13.20;98.30
5647;DHT22;2845;48.626;9.362;2023-11-19T15:24:45;14.00;98.60
5647;DHT22;2845;48.626;9.362;2023-11-19T15:27:19;13.10;98.50
5647;DHT22;2845;48.626;9.362;2023-11-19T15:29:54;13.00;98.70
5647;DHT22;2845;48.626;9.362;2023-11-19T15:32:29;12.90;98.80
5647;DHT22;2845;48.626;9.362;2023-11-19T15:35:07;12.80;99.00
5647;DHT22;2845;48.626;9.362;2023-11-19T15:37:45;12.70;99.10
5647;DHT22;2845;48.626;9.362;2023-11-19T15:40:20;13.70;99.40
5647;DHT22;2845;48.626;9.362;2023-11-19T15:42:54;12.60;99.30
5647;DHT22;2845;48.626;9.362;2023-11-19T15:45:30;12.50;99.40
5647;DHT22;2845;48.626;9.362;2023-11-19T15:48:09;12.40;99.40
5647;DHT22;2845;48.626;9.362;2023-11-19T15:50:48;12.80;99.60
5647;DHT22;2845;48.626;9.362;2023-11-19T15:53:22;12.30;99.70
5647;DHT22;2845;48.626;9.362;2023-11-19T15:55:56;12.30;99.70
5647;DHT22;2845;48.626;9.362;2023-11-19T15:58:31;12.20;99.70
5647;DHT22;2845;48.626;9.362;2023-11-19T16:01:07;12.10;99.90
5647;DHT22;2845;48.626;9.362;2023-11-19T16:03:44;12.10;99.90
5647;DHT22;2845;48.626;9.362;2023-11-19T16:06:23;12.10;99.90
5647;DHT22;2845;48.626;9.362;2023-11-19T16:08:57;12.10;99.90
5647;DHT22;2845;48.626;9.362;2023-11-19T16:11:32;12.70;99.90
5647;DHT22;2845;48.626;9.362;2023-11-19T16:14:38;12.50;99.90
5647;DHT22;2845;48.626;9.362;2023-11-19T16:17:42;12.50;99.90
5647;DHT22;2845;48.626;9.362;2023-11-19T16:20:52;14.20;99.90
5647;DHT22;2845;48.626;9.362;2023-11-19T16:28:22;14.70;99.90
5647;DHT22;2845;48.626;9.362;2023-11-19T16:31:45;11.40;99.90
5647;DHT22;2845;48.626;9.362;2023-11-19T16:34:48;11.70;99.90
5647;DHT22;2845;48.626;9.362;2023-11-19T16:38:04;13.70;99.90
5647;DHT22;2845;48.626;9.362;2023-11-19T16:41:21;11.60;99.90
5647;DHT22;2845;48.626;9.362;2023-11-19T16:44:54;8.20;99.90
5647;DHT22;2845;48.626;9.362;2023-11-19T16:47:59;12.30;99.90
5647;DHT22;2845;48.626;9.362;2023-11-19T16:51:16;11.20;99.90
5647;DHT22;2845;48.626;9.362;2023-11-19T16:54:22;11.70;99.90
5647;DHT22;2845;48.626;9.362;2023-11-19T17:00:44;11.20;99.90
5647;DHT22;2845;48.626;9.362;2023-11-19T17:03:47;13.90;99.90
5647;DHT22;2845;48.626;9.362;2023-11-19T17:07:03;13.20;99.90
5647;DHT22;2845;48.626;9.362;2023-11-19T17:10:03;12.90;99.90
5647;DHT22;2845;48.626;9.362;2023-11-19T17:12:41;10.70;99.90
5647;DHT22;2845;48.626;9.362;2023-11-19T17:15:16;10.70;99.90
5647;DHT22;2845;48.626;9.362;2023-11-19T17:17:50;10.60;99.90
5647;DHT22;2845;48.626;9.362;2023-11-19T17:20:24;10.50;99.90
5647;DHT22;2845;48.626;9.362;2023-11-19T17:22:58;10.40;99.90
5647;DHT22;2845;48.626;9.362;2023-11-19T17:25:34;11.60;99.90
5647;DHT22;2845;48.626;9.362;2023-11-19T17:29:16;10.20;99.90
5647;DHT22;2845;48.626;9.362;2023-11-19T17:33:12;9.10;99.90
5647;DHT22;2845;48.626;9.362;2023-11-19T17:36:48;10.00;99.90
5647;DHT22;2845;48.626;9.362;2023-11-19T17:39:58;11.40;99.90
5647;DHT22;2845;48.626;9.362;2023-11-19T17:43:22;9.50;99.90
5647;DHT22;2845;48.626;9.362;2023-11-19T17:46:41;9.30;99.90
5647;DHT22;2845;48.626;9.362;2023-11-19T17:54:02;9.90;99.90
5647;DHT22;2845;48.626;9.362;2023-11-19T17:57:04;9.30;99.90
5647;DHT22;2845;48.626;9.362;2023-11-19T18:00:00;12.40;99.90
5647;DHT22;2845;48.626;9.362;2023-11-19T18:02:39;9.80;99.90
5647;DHT22;2845;48.626;9.362;2023-11-19T18:05:17;14.40;99.90
5647;DHT22;2845;48.626;9.362;2023-11-19T18:07:55;9.90;99.90
5647;DHT22;2845;48.626;9.362;2023-11-19T18:10:30;9.90;99.90
5647;DHT22;2845;48.626;9.362;2023-11-19T18:13:04;9.90;99.90
5647;DHT22;2845;48.626;9.362;2023-11-19T18:15:40;9.90;99.90
5647;DHT22;2845;48.626;9.362;2023-11-19T18:18:18;12.30;99.90
5647;DHT22;2845;48.626;9.362;2023-11-19T18:20:52;10.10;99.90
5647;DHT22;2845;48.626;9.362;2023-11-19T18:23:27;10.20;99.90
5647;DHT22;2845;48.626;9.362;2023-11-19T18:26:02;10.20;99.90
5647;DHT22;2845;48.626;9.362;2023-11-19T18:28:37;10.30;99.90
5647;DHT22;2845;48.626;9.362;2023-11-19T18:31:13;12.70;99.90